sensor_id;sensor_type;location;lat;lon;timestamp;pressure;altitude;pressure_sealevel;temperature;humidity
47430;BME280;33181;49.246;7.372;2023-04-28T00:01:10;98557.72;;;13.70;71.59
47430;BME280;33181;49.246;7.372;2023-04-28T00:03:36;98555.59;;;13.73;74.54
47430;BME280;33181;49.246;7.372;2023-04-28T00:06:03;98556.88;;;13.69;74.78
47430;BME280;33181;49.246;7.372;2023-04-28T00:08:29;98550.22;;;13.65;74.66
47430;BME280;33181;49.246;7.372;2023-04-28T00:10:56;98551.22;;;13.64;75.06
47430;BME280;33181;49.246;7.372;2023-04-28T00:13:23;98558.13;;;13.65;75.81
47430;BME280;33181;49.246;7.372;2023-04-28T00:15:52;98552.84;;;13.65;76.76
47430;BME280;33181;49.246;7.372;2023-04-28T00:18:21;98551.91;;;13.66;76.77
47430;BME280;33181;49.246;7.372;2023-04-28T00:20:47;98547.16;;;13.70;78.08
47430;BME280;33181;49.246;7.372;2023-04-28T00:23:13;98539.22;;;13.70;78.48
47430;BME280;33181;49.246;7.372;2023-04-28T00:25:39;98538.41;;;13.69;80.28
47430;BME280;33181;49.246;7.372;2023-04-28T00:28:05;98530.09;;;13.64;80.14
47430;BME280;33181;49.246;7.372;2023-04-28T00:30:31;98526.94;;;13.60;80.61
47430;BME280;33181;49.246;7.372;2023-04-28T00:32:57;98528.50;;;13.53;81.59
47430;BME280;33181;49.246;7.372;2023-04-28T00:35:23;98522.69;;;13.50;82.03
47430;BME280;33181;49.246;7.372;2023-04-28T00:37:49;98517.84;;;13.45;82.41
47430;BME280;33181;49.246;7.372;2023-04-28T00:40:15;98526.63;;;13.36;81.95
47430;BME280;33181;49.246;7.372;2023-04-28T00:42:41;98530.66;;;13.40;82.25
47430;BME280;33181;49.246;7.372;2023-04-28T00:45:08;98532.16;;;13.42;82.92
47430;BME280;33181;49.246;7.372;2023-04-28T00:47:36;98528.41;;;13.45;83.27
47430;BME280;33181;49.246;7.372;2023-04-28T00:50:08;98529.22;;;13.45;83.75
47430;BME280;33181;49.246;7.372;2023-04-28T00:52:37;98519.50;;;13.46;83.65
47430;BME280;33181;49.246;7.372;2023-04-28T00:55:06;98517.38;;;13.22;80.11
47430;BME280;33181;49.246;7.372;2023-04-28T00:57:32;98517.16;;;13.15;80.87
47430;BME280;33181;49.246;7.372;2023-04-28T00:59:58;98516.31;;;13.15;81.10
47430;BME280;33181;49.246;7.372;2023-04-28T01:02:25;98511.91;;;13.06;83.02
47430;BME280;33181;49.246;7.372;2023-04-28T01:04:55;98505.53;;;12.71;86.04
47430;BME280;33181;49.246;7.372;2023-04-28T01:07:22;98512.59;;;12.61;86.87
47430;BME280;33181;49.246;7.372;2023-04-28T01:09:48;98507.47;;;12.59;86.86
47430;BME280;33181;49.246;7.372;2023-04-28T01:12:15;98508.47;;;12.58;86.87
47430;BME280;33181;49.246;7.372;2023-04-28T01:14:42;98501.38;;;12.59;86.94
47430;BME280;33181;49.246;7.372;2023-04-28T01:17:09;98498.84;;;12.67;86.69
47430;BME280;33181;49.246;7.372;2023-04-28T01:19:35;98503.97;;;12.78;86.77
47430;BME280;33181;49.246;7.372;2023-04-28T01:22:03;98505.63;;;12.79;86.60
47430;BME280;33181;49.246;7.372;2023-04-28T01:24:29;98503.28;;;12.66;88.50
47430;BME280;33181;49.246;7.372;2023-04-28T01:26:56;98523.25;;;12.69;88.44
47430;BME280;33181;49.246;7.372;2023-04-28T01:29:22;98518.31;;;12.56;88.80
47430;BME280;33181;49.246;7.372;2023-04-28T01:31:49;98522.59;;;12.57;88.88
47430;BME280;33181;49.246;7.372;2023-04-28T01:34:15;98502.91;;;12.61;88.61
47430;BME280;33181;49.246;7.372;2023-04-28T01:36:41;98507.94;;;12.35;89.88
47430;BME280;33181;49.246;7.372;2023-04-28T01:39:07;98505.19;;;12.37;90.34
47430;BME280;33181;49.246;7.372;2023-04-28T01:41:33;98513.19;;;12.45;90.37
47430;BME280;33181;49.246;7.372;2023-04-28T01:43:59;98515.97;;;12.43;91.43
47430;BME280;33181;49.246;7.372;2023-04-28T01:46:25;98518.44;;;12.55;91.76
47430;BME280;33181;49.246;7.372;2023-04-28T01:48:52;98510.00;;;12.41;92.89
47430;BME280;33181;49.246;7.372;2023-04-28T01:51:20;98517.78;;;12.43;93.43
47430;BME280;33181;49.246;7.372;2023-04-28T01:53:46;98514.44;;;12.50;93.79
47430;BME280;33181;49.246;7.372;2023-04-28T01:56:13;98507.19;;;12.62;93.93
47430;BME280;33181;49.246;7.372;2023-04-28T01:58:40;98501.91;;;12.72;92.92
47430;BME280;33181;49.246;7.372;2023-04-28T02:01:06;98496.91;;;12.69;92.39
47430;BME280;33181;49.246;7.372;2023-04-28T02:03:32;98510.78;;;12.71;91.80
47430;BME280;33181;49.246;7.372;2023-04-28T02:05:58;98523.97;;;12.71;91.74
47430;BME280;33181;49.246;7.372;2023-04-28T02:08:25;98517.00;;;12.70;91.76
47430;BME280;33181;49.246;7.372;2023-04-28T02:10:51;98522.97;;;12.72;91.95
47430;BME280;33181;49.246;7.372;2023-04-28T02:13:18;98520.63;;;12.69;91.83
47430;BME280;33181;49.246;7.372;2023-04-28T02:15:45;98525.91;;;12.69;91.83
47430;BME280;33181;49.246;7.372;2023-04-28T02:18:11;98508.56;;;12.66;91.68
47430;BME280;33181;49.246;7.372;2023-04-28T02:20:37;98510.38;;;12.66;91.48
47430;BME280;33181;49.246;7.372;2023-04-28T02:23:03;98514.31;;;12.52;91.71
47430;BME280;33181;49.246;7.372;2023-04-28T02:25:29;98499.44;;;12.51;91.85
47430;BME280;33181;49.246;7.372;2023-04-28T02:27:55;98499.06;;;12.46;92.35
47430;BME280;33181;49.246;7.372;2023-04-28T02:30:21;98491.47;;;12.33;94.15
47430;BME280;33181;49.246;7.372;2023-04-28T02:32:47;98486.19;;;12.43;94.55
47430;BME280;33181;49.246;7.372;2023-04-28T02:35:13;98477.53;;;12.50;94.23
47430;BME280;33181;49.246;7.372;2023-04-28T02:37:39;98476.16;;;12.56;93.69
47430;BME280;33181;49.246;7.372;2023-04-28T02:40:06;98471.00;;;12.64;93.66
47430;BME280;33181;49.246;7.372;2023-04-28T02:42:32;98468.75;;;12.69;92.37
47430;BME280;33181;49.246;7.372;2023-04-28T02:44:58;98467.09;;;12.68;92.03
47430;BME280;33181;49.246;7.372;2023-04-28T02:47:24;98471.38;;;12.69;92.17
47430;BME280;33181;49.246;7.372;2023-04-28T02:49:49;98467.97;;;12.59;92.79
47430;BME280;33181;49.246;7.372;2023-04-28T02:52:15;98473.06;;;12.61;92.66
47430;BME280;33181;49.246;7.372;2023-04-28T02:54:41;98461.00;;;12.68;92.69
47430;BME280;33181;49.246;7.372;2023-04-28T02:57:07;98460.16;;;12.77;92.61
47430;BME280;33181;49.246;7.372;2023-04-28T02:59:33;98459.41;;;12.85;92.44
47430;BME280;33181;49.246;7.372;2023-04-28T03:01:59;98455.38;;;12.90;92.31
47430;BME280;33181;49.246;7.372;2023-04-28T03:04:25;98459.91;;;12.98;92.51
47430;BME280;33181;49.246;7.372;2023-04-28T03:06:52;98450.72;;;13.02;92.30
47430;BME280;33181;49.246;7.372;2023-04-28T03:09:18;98453.38;;;13.02;92.02
47430;BME280;33181;49.246;7.372;2023-04-28T03:11:43;98462.09;;;13.03;91.29
47430;BME280;33181;49.246;7.372;2023-04-28T03:14:09;98455.06;;;12.93;90.63
47430;BME280;33181;49.246;7.372;2023-04-28T03:16:35;98452.19;;;12.87;90.78
47430;BME280;33181;49.246;7.372;2023-04-28T03:19:02;98460.38;;;12.84;91.11
47430;BME280;33181;49.246;7.372;2023-04-28T03:21:28;98455.81;;;12.76;90.88
47430;BME280;33181;49.246;7.372;2023-04-28T03:23:54;98444.63;;;12.74;91.06
47430;BME280;33181;49.246;7.372;2023-04-28T03:26:20;98445.56;;;12.73;91.27
47430;BME280;33181;49.246;7.372;2023-04-28T03:28:46;98440.00;;;12.76;91.09
47430;BME280;33181;49.246;7.372;2023-04-28T03:31:12;98439.63;;;12.71;91.29
47430;BME280;33181;49.246;7.372;2023-04-28T03:33:38;98425.94;;;12.67;91.47
47430;BME280;33181;49.246;7.372;2023-04-28T03:36:04;98421.31;;;12.69;92.02
47430;BME280;33181;49.246;7.372;2023-04-28T03:38:30;98424.78;;;12.70;92.09
47430;BME280;33181;49.246;7.372;2023-04-28T03:40:56;98416.03;;;12.69;92.14
47430;BME280;33181;49.246;7.372;2023-04-28T03:43:22;98416.88;;;12.70;92.47
47430;BME280;33181;49.246;7.372;2023-04-28T03:45:48;98424.38;;;12.74;92.93
47430;BME280;33181;49.246;7.372;2023-04-28T03:48:16;98424.19;;;12.76;92.89
47430;BME280;33181;49.246;7.372;2023-04-28T03:50:42;98418.94;;;12.76;92.75
47430;BME280;33181;49.246;7.372;2023-04-28T03:53:10;98415.91;;;12.71;92.39
47430;BME280;33181;49.246;7.372;2023-04-28T03:55:37;98403.31;;;12.65;92.66
47430;BME280;33181;49.246;7.372;2023-04-28T03:58:03;98416.59;;;12.73;93.04
47430;BME280;33181;49.246;7.372;2023-04-28T04:00:29;98411.72;;;12.78;92.96
47430;BME280;33181;49.246;7.372;2023-04-28T04:02:54;98408.63;;;12.83;93.03
47430;BME280;33181;49.246;7.372;2023-04-28T04:05:21;98403.91;;;12.86;93.11
47430;BME280;33181;49.246;7.372;2023-04-28T04:07:47;98407.09;;;12.90;93.17
47430;BME280;33181;49.246;7.372;2023-04-28T04:10:13;98397.06;;;12.93;93.12
47430;BME280;33181;49.246;7.372;2023-04-28T04:12:39;98399.94;;;13.00;92.95
47430;BME280;33181;49.246;7.372;2023-04-28T04:15:05;98405.06;;;13.02;93.00
47430;BME280;33181;49.246;7.372;2023-04-28T04:17:31;98404.63;;;13.06;93.13
47430;BME280;33181;49.246;7.372;2023-04-28T04:19:57;98409.75;;;13.08;93.53
47430;BME280;33181;49.246;7.372;2023-04-28T04:22:23;98401.84;;;13.08;93.59
47430;BME280;33181;49.246;7.372;2023-04-28T04:24:49;98400.19;;;13.07;93.72
47430;BME280;33181;49.246;7.372;2023-04-28T04:27:15;98395.59;;;13.09;93.66
47430;BME280;33181;49.246;7.372;2023-04-28T04:29:41;98400.19;;;13.07;93.80
47430;BME280;33181;49.246;7.372;2023-04-28T04:32:07;98400.47;;;13.04;93.73
47430;BME280;33181;49.246;7.372;2023-04-28T04:34:33;98401.75;;;12.99;93.85
47430;BME280;33181;49.246;7.372;2023-04-28T04:36:59;98402.41;;;13.02;94.55
47430;BME280;33181;49.246;7.372;2023-04-28T04:39:25;98396.19;;;13.03;94.99
47430;BME280;33181;49.246;7.372;2023-04-28T04:41:50;98401.59;;;13.01;95.15
47430;BME280;33181;49.246;7.372;2023-04-28T04:44:17;98395.97;;;12.96;95.58
47430;BME280;33181;49.246;7.372;2023-04-28T04:46:42;98393.38;;;13.04;95.92
47430;BME280;33181;49.246;7.372;2023-04-28T04:49:08;98387.88;;;12.97;95.92
47430;BME280;33181;49.246;7.372;2023-04-28T04:51:34;98393.03;;;12.99;96.47
47430;BME280;33181;49.246;7.372;2023-04-28T04:54:00;98386.22;;;12.96;97.28
47430;BME280;33181;49.246;7.372;2023-04-28T04:56:25;98390.22;;;13.01;97.81
47430;BME280;33181;49.246;7.372;2023-04-28T04:58:51;98381.03;;;13.05;98.31
47430;BME280;33181;49.246;7.372;2023-04-28T05:01:17;98379.91;;;13.07;98.47
47430;BME280;33181;49.246;7.372;2023-04-28T05:03:43;98373.53;;;13.10;98.62
47430;BME280;33181;49.246;7.372;2023-04-28T05:06:09;98373.97;;;13.05;99.22
47430;BME280;33181;49.246;7.372;2023-04-28T05:08:35;98376.00;;;13.11;99.14
47430;BME280;33181;49.246;7.372;2023-04-28T05:11:01;98376.84;;;13.12;99.42
47430;BME280;33181;49.246;7.372;2023-04-28T05:13:27;98374.75;;;13.15;99.64
47430;BME280;33181;49.246;7.372;2023-04-28T05:15:52;98376.63;;;13.23;99.62
47430;BME280;33181;49.246;7.372;2023-04-28T05:18:18;98378.16;;;13.26;99.88
47430;BME280;33181;49.246;7.372;2023-04-28T05:20:44;98374.53;;;13.27;99.71
47430;BME280;33181;49.246;7.372;2023-04-28T05:23:10;98368.13;;;13.29;100.00
47430;BME280;33181;49.246;7.372;2023-04-28T05:25:36;98371.47;;;13.31;99.98
47430;BME280;33181;49.246;7.372;2023-04-28T05:28:02;98369.53;;;13.23;99.75
47430;BME280;33181;49.246;7.372;2023-04-28T05:30:33;98368.59;;;13.25;99.73
47430;BME280;33181;49.246;7.372;2023-04-28T05:32:59;98369.53;;;13.23;99.62
47430;BME280;33181;49.246;7.372;2023-04-28T05:35:25;98378.84;;;13.28;99.79
47430;BME280;33181;49.246;7.372;2023-04-28T05:37:51;98368.13;;;13.29;100.00
47430;BME280;33181;49.246;7.372;2023-04-28T05:40:17;98369.66;;;13.32;100.00
47430;BME280;33181;49.246;7.372;2023-04-28T05:42:43;98362.72;;;13.31;99.82
47430;BME280;33181;49.246;7.372;2023-04-28T05:45:10;98369.44;;;13.25;99.65
47430;BME280;33181;49.246;7.372;2023-04-28T05:47:35;98378.59;;;13.21;99.89
47430;BME280;33181;49.246;7.372;2023-04-28T05:50:01;98375.69;;;13.14;100.00
47430;BME280;33181;49.246;7.372;2023-04-28T05:52:27;98381.81;;;13.15;100.00
47430;BME280;33181;49.246;7.372;2023-04-28T05:54:53;98380.31;;;13.12;100.00
47430;BME280;33181;49.246;7.372;2023-04-28T05:57:19;98372.53;;;13.11;100.00
47430;BME280;33181;49.246;7.372;2023-04-28T05:59:45;98381.97;;;13.13;100.00
47430;BME280;33181;49.246;7.372;2023-04-28T06:02:11;98383.06;;;13.11;100.00
47430;BME280;33181;49.246;7.372;2023-04-28T06:04:38;98392.22;;;13.16;100.00
47430;BME280;33181;49.246;7.372;2023-04-28T06:07:03;98394.84;;;13.16;100.00
47430;BME280;33181;49.246;7.372;2023-04-28T06:09:29;98386.94;;;13.16;100.00
47430;BME280;33181;49.246;7.372;2023-04-28T06:11:55;98398.00;;;13.20;100.00
47430;BME280;33181;49.246;7.372;2023-04-28T06:14:22;98395.06;;;13.23;100.00
47430;BME280;33181;49.246;7.372;2023-04-28T06:16:49;98394.53;;;13.19;100.00
47430;BME280;33181;49.246;7.372;2023-04-28T06:19:15;98393.72;;;13.19;100.00
47430;BME280;33181;49.246;7.372;2023-04-28T06:21:44;98393.19;;;13.15;100.00
47430;BME280;33181;49.246;7.372;2023-04-28T06:24:10;98396.66;;;13.16;100.00
47430;BME280;33181;49.246;7.372;2023-04-28T06:26:36;98402.47;;;13.19;100.00
47430;BME280;33181;49.246;7.372;2023-04-28T06:29:02;98393.00;;;13.27;100.00
47430;BME280;33181;49.246;7.372;2023-04-28T06:31:28;98398.38;;;13.35;100.00
47430;BME280;33181;49.246;7.372;2023-04-28T06:33:54;98402.06;;;13.42;100.00
47430;BME280;33181;49.246;7.372;2023-04-28T06:36:20;98402.53;;;13.37;100.00
47430;BME280;33181;49.246;7.372;2023-04-28T06:38:45;98402.88;;;13.42;100.00
47430;BME280;33181;49.246;7.372;2023-04-28T06:41:11;98407.31;;;13.42;100.00
47430;BME280;33181;49.246;7.372;2023-04-28T06:43:37;98410.50;;;13.45;100.00
47430;BME280;33181;49.246;7.372;2023-04-28T06:46:03;98411.72;;;13.51;100.00
47430;BME280;33181;49.246;7.372;2023-04-28T06:48:29;98403.09;;;13.49;100.00
47430;BME280;33181;49.246;7.372;2023-04-28T06:50:55;98391.59;;;13.50;100.00
47430;BME280;33181;49.246;7.372;2023-04-28T06:53:21;98403.41;;;13.64;100.00
47430;BME280;33181;49.246;7.372;2023-04-28T06:55:47;98398.28;;;13.62;100.00
47430;BME280;33181;49.246;7.372;2023-04-28T06:58:12;98399.56;;;13.76;100.00
47430;BME280;33181;49.246;7.372;2023-04-28T07:00:38;98395.56;;;13.72;100.00
47430;BME280;33181;49.246;7.372;2023-04-28T07:03:04;98396.41;;;13.73;100.00
47430;BME280;33181;49.246;7.372;2023-04-28T07:05:31;98395.31;;;13.83;100.00
47430;BME280;33181;49.246;7.372;2023-04-28T07:07:58;98395.19;;;13.85;100.00
47430;BME280;33181;49.246;7.372;2023-04-28T07:10:24;98393.13;;;13.97;100.00
47430;BME280;33181;49.246;7.372;2023-04-28T07:12:52;98399.88;;;13.99;100.00
47430;BME280;33181;49.246;7.372;2023-04-28T07:15:18;98399.88;;;13.99;100.00
47430;BME280;33181;49.246;7.372;2023-04-28T07:17:44;98395.47;;;14.00;100.00
47430;BME280;33181;49.246;7.372;2023-04-28T07:20:10;98401.59;;;14.08;100.00
47430;BME280;33181;49.246;7.372;2023-04-28T07:22:36;98398.97;;;14.08;100.00
47430;BME280;33181;49.246;7.372;2023-04-28T07:25:03;98397.41;;;13.98;100.00
47430;BME280;33181;49.246;7.372;2023-04-28T07:27:30;98402.09;;;14.04;100.00
47430;BME280;33181;49.246;7.372;2023-04-28T07:29:56;98400.66;;;14.09;100.00
47430;BME280;33181;49.246;7.372;2023-04-28T07:32:21;98408.81;;;13.98;100.00
47430;BME280;33181;49.246;7.372;2023-04-28T07:34:48;98414.47;;;14.03;100.00
47430;BME280;33181;49.246;7.372;2023-04-28T07:37:15;98407.41;;;14.12;100.00
47430;BME280;33181;49.246;7.372;2023-04-28T07:39:41;98408.78;;;14.16;100.00
47430;BME280;33181;49.246;7.372;2023-04-28T07:42:08;98408.28;;;14.21;100.00
47430;BME280;33181;49.246;7.372;2023-04-28T07:44:34;98413.06;;;14.17;100.00
47430;BME280;33181;49.246;7.372;2023-04-28T07:47:01;98406.13;;;14.16;100.00
47430;BME280;33181;49.246;7.372;2023-04-28T07:49:30;98405.41;;;14.32;100.00
47430;BME280;33181;49.246;7.372;2023-04-28T07:51:56;98406.63;;;14.46;100.00
47430;BME280;33181;49.246;7.372;2023-04-28T07:54:23;98411.84;;;14.55;100.00
47430;BME280;33181;49.246;7.372;2023-04-28T07:56:49;98411.06;;;14.63;100.00
47430;BME280;33181;49.246;7.372;2023-04-28T07:59:15;98411.09;;;14.71;100.00
47430;BME280;33181;49.246;7.372;2023-04-28T08:01:41;98407.16;;;14.75;100.00
47430;BME280;33181;49.246;7.372;2023-04-28T08:04:07;98412.09;;;14.78;100.00
47430;BME280;33181;49.246;7.372;2023-04-28T08:06:33;98412.66;;;14.90;100.00
47430;BME280;33181;49.246;7.372;2023-04-28T08:09:01;98413.28;;;14.84;100.00
47430;BME280;33181;49.246;7.372;2023-04-28T08:11:28;98417.16;;;14.98;100.00
47430;BME280;33181;49.246;7.372;2023-04-28T08:13:54;98421.94;;;14.94;100.00
47430;BME280;33181;49.246;7.372;2023-04-28T08:16:21;98421.34;;;14.74;100.00
47430;BME280;33181;49.246;7.372;2023-04-28T08:18:49;98418.88;;;14.81;100.00
47430;BME280;33181;49.246;7.372;2023-04-28T08:21:15;98424.66;;;14.76;100.00
47430;BME280;33181;49.246;7.372;2023-04-28T08:23:41;98430.47;;;14.80;100.00
47430;BME280;33181;49.246;7.372;2023-04-28T08:26:09;98427.22;;;14.94;100.00
47430;BME280;33181;49.246;7.372;2023-04-28T08:28:36;98417.16;;;14.98;100.00
47430;BME280;33181;49.246;7.372;2023-04-28T08:31:05;98425.13;;;15.14;100.00
47430;BME280;33181;49.246;7.372;2023-04-28T08:33:32;98423.13;;;15.08;100.00
47430;BME280;33181;49.246;7.372;2023-04-28T08:35:59;98422.19;;;15.17;100.00
47430;BME280;33181;49.246;7.372;2023-04-28T08:38:25;98425.78;;;15.16;100.00
47430;BME280;33181;49.246;7.372;2023-04-28T08:40:56;98422.19;;;15.17;100.00
47430;BME280;33181;49.246;7.372;2023-04-28T08:43:24;98433.63;;;15.26;100.00
47430;BME280;33181;49.246;7.372;2023-04-28T08:45:54;98433.75;;;15.24;100.00
47430;BME280;33181;49.246;7.372;2023-04-28T08:48:21;98432.91;;;15.16;100.00
47430;BME280;33181;49.246;7.372;2023-04-28T08:50:52;98434.13;;;15.29;100.00
47430;BME280;33181;49.246;7.372;2023-04-28T08:53:28;98433.91;;;15.15;100.00
47430;BME280;33181;49.246;7.372;2023-04-28T08:55:56;98431.63;;;15.28;100.00
47430;BME280;33181;49.246;7.372;2023-04-28T08:58:24;98436.13;;;15.44;100.00
47430;BME280;33181;49.246;7.372;2023-04-28T09:00:52;98436.78;;;15.46;100.00
47430;BME280;33181;49.246;7.372;2023-04-28T09:03:19;98428.19;;;15.60;100.00
47430;BME280;33181;49.246;7.372;2023-04-28T09:05:45;98429.56;;;15.72;100.00
47430;BME280;33181;49.246;7.372;2023-04-28T09:08:11;98420.97;;;15.70;100.00
47430;BME280;33181;49.246;7.372;2023-04-28T09:10:37;98431.53;;;15.62;100.00
47430;BME280;33181;49.246;7.372;2023-04-28T09:13:04;98425.78;;;15.67;100.00
47430;BME280;33181;49.246;7.372;2023-04-28T09:15:36;98433.50;;;15.60;100.00
47430;BME280;33181;49.246;7.372;2023-04-28T09:18:06;98434.97;;;15.46;100.00
47430;BME280;33181;49.246;7.372;2023-04-28T09:20:34;98439.25;;;15.47;100.00
47430;BME280;33181;49.246;7.372;2023-04-28T09:23:20;98447.06;;;15.49;100.00
47430;BME280;33181;49.246;7.372;2023-04-28T09:26:06;98447.53;;;15.36;100.00
47430;BME280;33181;49.246;7.372;2023-04-28T09:28:34;98447.03;;;15.41;100.00
47430;BME280;33181;49.246;7.372;2023-04-28T09:31:01;98449.19;;;15.37;100.00
47430;BME280;33181;49.246;7.372;2023-04-28T09:33:27;98436.63;;;15.39;100.00
47430;BME280;33181;49.246;7.372;2023-04-28T09:35:53;98455.69;;;15.51;100.00
47430;BME280;33181;49.246;7.372;2023-04-28T09:38:21;98449.91;;;15.64;100.00
47430;BME280;33181;49.246;7.372;2023-04-28T09:41:01;98446.63;;;15.70;100.00
47430;BME280;33181;49.246;7.372;2023-04-28T09:43:33;98452.75;;;15.70;100.00
47430;BME280;33181;49.246;7.372;2023-04-28T09:46:04;98448.91;;;15.65;100.00
47430;BME280;33181;49.246;7.372;2023-04-28T09:48:36;98453.09;;;15.67;100.00
47430;BME280;33181;49.246;7.372;2023-04-28T09:51:06;98447.28;;;15.72;100.00
47430;BME280;33181;49.246;7.372;2023-04-28T09:53:33;98449.47;;;15.77;100.00
47430;BME280;33181;49.246;7.372;2023-04-28T09:56:02;98440.00;;;15.74;100.00
47430;BME280;33181;49.246;7.372;2023-04-28T09:58:30;98452.91;;;15.85;100.00
47430;BME280;33181;49.246;7.372;2023-04-28T10:00:59;98446.97;;;15.91;100.00
47430;BME280;33181;49.246;7.372;2023-04-28T10:03:29;98450.97;;;15.95;100.00
47430;BME280;33181;49.246;7.372;2023-04-28T10:05:57;98454.59;;;16.03;100.00
47430;BME280;33181;49.246;7.372;2023-04-28T10:08:25;98450.44;;;16.00;100.00
47430;BME280;33181;49.246;7.372;2023-04-28T10:10:52;98443.00;;;16.12;100.00
47430;BME280;33181;49.246;7.372;2023-04-28T10:13:20;98442.66;;;16.15;100.00
47430;BME280;33181;49.246;7.372;2023-04-28T10:15:48;98443.81;;;16.29;100.00
47430;BME280;33181;49.246;7.372;2023-04-28T10:18:14;98442.66;;;16.31;100.00
47430;BME280;33181;49.246;7.372;2023-04-28T10:20:47;98441.34;;;16.27;100.00
47430;BME280;33181;49.246;7.372;2023-04-28T10:26:19;98440.81;;;16.40;100.00
47430;BME280;33181;49.246;7.372;2023-04-28T10:28:46;98447.63;;;16.42;100.00
47430;BME280;33181;49.246;7.372;2023-04-28T10:31:18;98443.97;;;16.27;100.00
47430;BME280;33181;49.246;7.372;2023-04-28T10:33:48;98452.09;;;16.34;100.00
47430;BME280;33181;49.246;7.372;2023-04-28T10:36:49;98456.72;;;16.32;100.00
47430;BME280;33181;49.246;7.372;2023-04-28T10:39:19;98450.75;;;16.30;100.00
47430;BME280;33181;49.246;7.372;2023-04-28T10:41:46;98455.72;;;16.33;100.00
47430;BME280;33181;49.246;7.372;2023-04-28T10:47:07;98444.44;;;16.39;100.00
47430;BME280;33181;49.246;7.372;2023-04-28T10:55:30;98443.78;;;16.45;100.00
47430;BME280;33181;49.246;7.372;2023-04-28T10:58:30;98443.25;;;16.58;100.00
47430;BME280;33181;49.246;7.372;2023-04-28T11:01:23;98438.13;;;16.48;100.00
47430;BME280;33181;49.246;7.372;2023-04-28T11:04:06;98438.09;;;16.64;100.00
47430;BME280;33181;49.246;7.372;2023-04-28T11:06:40;98432.97;;;16.63;100.00
47430;BME280;33181;49.246;7.372;2023-04-28T11:17:03;98425.31;;;16.76;100.00
47430;BME280;33181;49.246;7.372;2023-04-28T11:22:00;98422.00;;;16.74;100.00
47430;BME280;33181;49.246;7.372;2023-04-28T11:24:29;98422.47;;;16.86;100.00
47430;BME280;33181;49.246;7.372;2023-04-28T11:26:58;98425.72;;;17.04;100.00
47430;BME280;33181;49.246;7.372;2023-04-28T11:29:37;98422.69;;;17.16;100.00
47430;BME280;33181;49.246;7.372;2023-04-28T11:32:05;98427.94;;;17.24;100.00
47430;BME280;33181;49.246;7.372;2023-04-28T11:34:32;98422.00;;;17.22;100.00
47430;BME280;33181;49.246;7.372;2023-04-28T11:36:58;98421.09;;;17.29;100.00
47430;BME280;33181;49.246;7.372;2023-04-28T11:39:34;98421.78;;;17.54;100.00
47430;BME280;33181;49.246;7.372;2023-04-28T11:42:07;98428.34;;;17.67;100.00
47430;BME280;33181;49.246;7.372;2023-04-28T11:44:33;98429.63;;;17.71;100.00
47430;BME280;33181;49.246;7.372;2023-04-28T11:47:01;98422.69;;;17.47;100.00
47430;BME280;33181;49.246;7.372;2023-04-28T11:49:29;98427.47;;;17.43;100.00
47430;BME280;33181;49.246;7.372;2023-04-28T11:52:06;98429.75;;;17.54;100.00
47430;BME280;33181;49.246;7.372;2023-04-28T11:54:34;98436.25;;;17.75;100.00
47430;BME280;33181;49.246;7.372;2023-04-28T11:57:00;98426.63;;;17.97;100.00
47430;BME280;33181;49.246;7.372;2023-04-28T11:59:35;98420.84;;;17.93;99.99
47430;BME280;33181;49.246;7.372;2023-04-28T12:02:05;98421.91;;;18.22;98.76
47430;BME280;33181;49.246;7.372;2023-04-28T12:04:42;98420.03;;;18.30;96.27
47430;BME280;33181;49.246;7.372;2023-04-28T12:07:16;98429.78;;;18.68;98.47
47430;BME280;33181;49.246;7.372;2023-04-28T12:09:45;98417.25;;;18.77;91.36
47430;BME280;33181;49.246;7.372;2023-04-28T12:12:26;98424.41;;;18.76;90.82
47430;BME280;33181;49.246;7.372;2023-04-28T12:14:55;98424.53;;;18.60;91.88
47430;BME280;33181;49.246;7.372;2023-04-28T12:17:26;98420.22;;;18.59;93.20
47430;BME280;33181;49.246;7.372;2023-04-28T12:19:56;98426.19;;;18.61;93.89
47430;BME280;33181;49.246;7.372;2023-04-28T12:22:23;98415.75;;;18.44;91.44
47430;BME280;33181;49.246;7.372;2023-04-28T12:25:10;98417.69;;;18.80;93.74
47430;BME280;33181;49.246;7.372;2023-04-28T12:27:38;98417.31;;;18.98;92.62
47430;BME280;33181;49.246;7.372;2023-04-28T12:30:29;98415.84;;;19.32;89.71
47430;BME280;33181;49.246;7.372;2023-04-28T12:32:55;98408.16;;;19.22;89.01
47430;BME280;33181;49.246;7.372;2023-04-28T12:35:26;98409.91;;;19.30;87.55
47430;BME280;33181;49.246;7.372;2023-04-28T12:37:54;98412.09;;;19.62;90.11
47430;BME280;33181;49.246;7.372;2023-04-28T12:40:21;98405.97;;;19.83;85.06
47430;BME280;33181;49.246;7.372;2023-04-28T12:42:47;98394.84;;;19.58;82.22
47430;BME280;33181;49.246;7.372;2023-04-28T12:45:16;98403.66;;;19.59;84.86
47430;BME280;33181;49.246;7.372;2023-04-28T12:47:42;98397.44;;;19.52;82.84
47430;BME280;33181;49.246;7.372;2023-04-28T12:50:09;98396.47;;;19.38;83.60
47430;BME280;33181;49.246;7.372;2023-04-28T12:52:35;98406.63;;;19.13;85.48
47430;BME280;33181;49.246;7.372;2023-04-28T12:55:03;98413.47;;;18.86;88.98
47430;BME280;33181;49.246;7.372;2023-04-28T12:57:29;98409.56;;;18.29;93.41
47430;BME280;33181;49.246;7.372;2023-04-28T12:59:55;98399.50;;;18.39;95.72
47430;BME280;33181;49.246;7.372;2023-04-28T13:02:22;98380.31;;;18.59;97.73
47430;BME280;33181;49.246;7.372;2023-04-28T13:04:48;98380.97;;;18.61;94.30
47430;BME280;33181;49.246;7.372;2023-04-28T13:07:14;98380.25;;;18.52;92.82
47430;BME280;33181;49.246;7.372;2023-04-28T13:09:41;98389.78;;;18.61;94.52
47430;BME280;33181;49.246;7.372;2023-04-28T13:12:08;98377.94;;;18.64;94.06
47430;BME280;33181;49.246;7.372;2023-04-28T13:14:36;98379.88;;;18.55;93.99
47430;BME280;33181;49.246;7.372;2023-04-28T13:17:02;98374.91;;;18.37;94.83
47430;BME280;33181;49.246;7.372;2023-04-28T13:19:28;98377.13;;;18.48;94.79